sensor_id;sensor_type;location;lat;lon;timestamp;P1;durP1;ratioP1;P2;durP2;ratioP2
80421;SDS011;69763;50.182;9.144;2023-06-14T00:02:20;7.72;;;4.78;;
80421;SDS011;69763;50.182;9.144;2023-06-14T00:04:47;10.02;;;5.18;;
80421;SDS011;69763;50.182;9.144;2023-06-14T00:07:12;7.97;;;5.10;;
80421;SDS011;69763;50.182;9.144;2023-06-14T00:09:38;9.00;;;5.50;;
80421;SDS011;69763;50.182;9.144;2023-06-14T00:12:03;7.43;;;4.47;;
80421;SDS011;69763;50.182;9.144;2023-06-14T00:14:29;7.93;;;4.70;;
80421;SDS011;69763;50.182;9.144;2023-06-14T00:16:54;7.53;;;4.35;;
80421;SDS011;69763;50.182;9.144;2023-06-14T00:19:20;8.55;;;5.13;;
80421;SDS011;69763;50.182;9.144;2023-06-14T00:21:46;9.13;;;4.95;;
80421;SDS011;69763;50.182;9.144;2023-06-14T00:24:12;7.30;;;5.53;;
80421;SDS011;69763;50.182;9.144;2023-06-14T00:26:37;9.27;;;5.15;;
80421;SDS011;69763;50.182;9.144;2023-06-14T00:29:02;8.75;;;5.03;;
80421;SDS011;69763;50.182;9.144;2023-06-14T00:31:28;11.77;;;5.53;;
80421;SDS011;69763;50.182;9.144;2023-06-14T00:33:53;11.38;;;5.25;;
80421;SDS011;69763;50.182;9.144;2023-06-14T00:36:19;8.80;;;4.70;;
80421;SDS011;69763;50.182;9.144;2023-06-14T00:38:46;10.27;;;5.25;;
80421;SDS011;69763;50.182;9.144;2023-06-14T00:41:11;8.77;;;5.45;;
80421;SDS011;69763;50.182;9.144;2023-06-14T00:43:36;8.55;;;4.75;;
80421;SDS011;69763;50.182;9.144;2023-06-14T00:46:02;7.53;;;5.30;;
80421;SDS011;69763;50.182;9.144;2023-06-14T00:48:27;8.20;;;4.97;;
80421;SDS011;69763;50.182;9.144;2023-06-14T00:50:53;6.82;;;4.65;;
80421;SDS011;69763;50.182;9.144;2023-06-14T00:53:19;8.20;;;5.20;;
80421;SDS011;69763;50.182;9.144;2023-06-14T00:55:46;7.55;;;4.90;;
80421;SDS011;69763;50.182;9.144;2023-06-14T00:58:12;9.32;;;5.13;;
80421;SDS011;69763;50.182;9.144;2023-06-14T01:03:03;10.97;;;5.80;;
80421;SDS011;69763;50.182;9.144;2023-06-14T01:05:29;9.35;;;4.90;;
80421;SDS011;69763;50.182;9.144;2023-06-14T01:08:00;9.60;;;5.15;;
80421;SDS011;69763;50.182;9.144;2023-06-14T01:10:38;11.68;;;5.65;;
80421;SDS011;69763;50.182;9.144;2023-06-14T01:13:13;11.15;;;4.95;;
80421;SDS011;69763;50.182;9.144;2023-06-14T01:15:44;7.78;;;4.68;;
80421;SDS011;69763;50.182;9.144;2023-06-14T01:18:11;7.75;;;5.15;;
80421;SDS011;69763;50.182;9.144;2023-06-14T01:20:36;8.38;;;4.93;;
80421;SDS011;69763;50.182;9.144;2023-06-14T01:23:03;8.95;;;4.35;;
80421;SDS011;69763;50.182;9.144;2023-06-14T01:25:29;6.80;;;4.50;;
80421;SDS011;69763;50.182;9.144;2023-06-14T01:27:55;10.68;;;5.32;;
80421;SDS011;69763;50.182;9.144;2023-06-14T01:30:23;10.82;;;5.25;;
80421;SDS011;69763;50.182;9.144;2023-06-14T01:32:49;8.80;;;4.75;;
80421;SDS011;69763;50.182;9.144;2023-06-14T01:35:15;9.27;;;4.68;;
80421;SDS011;69763;50.182;9.144;2023-06-14T01:37:40;9.23;;;5.07;;
80421;SDS011;69763;50.182;9.144;2023-06-14T01:40:09;8.93;;;5.05;;
80421;SDS011;69763;50.182;9.144;2023-06-14T01:42:37;8.55;;;4.93;;
80421;SDS011;69763;50.182;9.144;2023-06-14T01:47:29;6.95;;;4.38;;
80421;SDS011;69763;50.182;9.144;2023-06-14T01:49:55;6.43;;;4.78;;
80421;SDS011;69763;50.182;9.144;2023-06-14T01:52:20;5.70;;;4.05;;
80421;SDS011;69763;50.182;9.144;2023-06-14T01:54:46;5.47;;;4.18;;
80421;SDS011;69763;50.182;9.144;2023-06-14T01:57:12;6.20;;;4.15;;
80421;SDS011;69763;50.182;9.144;2023-06-14T01:59:38;7.15;;;4.75;;
80421;SDS011;69763;50.182;9.144;2023-06-14T02:02:03;7.40;;;4.32;;
80421;SDS011;69763;50.182;9.144;2023-06-14T02:04:29;7.75;;;4.57;;
80421;SDS011;69763;50.182;9.144;2023-06-14T02:06:55;8.75;;;4.35;;
80421;SDS011;69763;50.182;9.144;2023-06-14T02:09:20;7.18;;;4.75;;
80421;SDS011;69763;50.182;9.144;2023-06-14T02:11:45;6.63;;;4.93;;
80421;SDS011;69763;50.182;9.144;2023-06-14T02:14:12;8.20;;;4.85;;
80421;SDS011;69763;50.182;9.144;2023-06-14T02:16:37;9.85;;;4.70;;
80421;SDS011;69763;50.182;9.144;2023-06-14T02:19:03;12.65;;;4.93;;
80421;SDS011;69763;50.182;9.144;2023-06-14T02:21:28;10.20;;;4.35;;
80421;SDS011;69763;50.182;9.144;2023-06-14T02:23:53;8.57;;;5.03;;
80421;SDS011;69763;50.182;9.144;2023-06-14T02:26:19;6.22;;;4.20;;
80421;SDS011;69763;50.182;9.144;2023-06-14T02:28:44;9.27;;;4.53;;
80421;SDS011;69763;50.182;9.144;2023-06-14T02:31:11;6.53;;;4.60;;
80421;SDS011;69763;50.182;9.144;2023-06-14T02:33:36;7.20;;;4.53;;
80421;SDS011;69763;50.182;9.144;2023-06-14T02:36:02;6.22;;;4.15;;
80421;SDS011;69763;50.182;9.144;2023-06-14T02:38:27;10.55;;;4.25;;
80421;SDS011;69763;50.182;9.144;2023-06-14T02:40:53;8.95;;;4.45;;
80421;SDS011;69763;50.182;9.144;2023-06-14T02:43:18;8.65;;;4.50;;
80421;SDS011;69763;50.182;9.144;2023-06-14T02:45:43;5.72;;;4.20;;
80421;SDS011;69763;50.182;9.144;2023-06-14T02:48:10;7.55;;;4.43;;
80421;SDS011;69763;50.182;9.144;2023-06-14T02:50:35;9.40;;;4.32;;
80421;SDS011;69763;50.182;9.144;2023-06-14T02:53:01;7.22;;;4.63;;
80421;SDS011;69763;50.182;9.144;2023-06-14T02:55:26;11.32;;;5.10;;
80421;SDS011;69763;50.182;9.144;2023-06-14T02:57:51;6.75;;;4.55;;
80421;SDS011;69763;50.182;9.144;2023-06-14T03:00:17;8.18;;;4.30;;
80421;SDS011;69763;50.182;9.144;2023-06-14T03:02:43;11.45;;;5.43;;
80421;SDS011;69763;50.182;9.144;2023-06-14T03:05:09;13.43;;;4.80;;
80421;SDS011;69763;50.182;9.144;2023-06-14T03:07:35;8.60;;;4.75;;
80421;SDS011;69763;50.182;9.144;2023-06-14T03:10:00;8.25;;;5.00;;
80421;SDS011;69763;50.182;9.144;2023-06-14T03:12:25;14.25;;;4.70;;
80421;SDS011;69763;50.182;9.144;2023-06-14T03:14:51;12.85;;;4.60;;
80421;SDS011;69763;50.182;9.144;2023-06-14T03:17:16;8.68;;;4.90;;
80421;SDS011;69763;50.182;9.144;2023-06-14T03:19:42;6.38;;;4.25;;
80421;SDS011;69763;50.182;9.144;2023-06-14T03:22:08;7.35;;;4.65;;
80421;SDS011;69763;50.182;9.144;2023-06-14T03:24:34;7.32;;;4.63;;
80421;SDS011;69763;50.182;9.144;2023-06-14T03:26:59;10.15;;;4.70;;
80421;SDS011;69763;50.182;9.144;2023-06-14T03:29:24;8.15;;;4.60;;
80421;SDS011;69763;50.182;9.144;2023-06-14T03:31:56;6.97;;;4.40;;
80421;SDS011;69763;50.182;9.144;2023-06-14T03:34:22;14.55;;;5.10;;
80421;SDS011;69763;50.182;9.144;2023-06-14T03:36:48;7.45;;;4.40;;
80421;SDS011;69763;50.182;9.144;2023-06-14T03:39:14;6.13;;;4.68;;
80421;SDS011;69763;50.182;9.144;2023-06-14T03:41:40;12.02;;;5.18;;
80421;SDS011;69763;50.182;9.144;2023-06-14T03:44:05;9.35;;;4.45;;
80421;SDS011;69763;50.182;9.144;2023-06-14T03:46:31;10.32;;;4.28;;
80421;SDS011;69763;50.182;9.144;2023-06-14T03:48:56;6.90;;;4.35;;
80421;SDS011;69763;50.182;9.144;2023-06-14T03:51:21;6.38;;;4.47;;
80421;SDS011;69763;50.182;9.144;2023-06-14T03:53:47;7.18;;;5.22;;
80421;SDS011;69763;50.182;9.144;2023-06-14T03:56:13;7.78;;;5.03;;
80421;SDS011;69763;50.182;9.144;2023-06-14T03:58:39;6.35;;;4.60;;
80421;SDS011;69763;50.182;9.144;2023-06-14T04:01:04;6.43;;;4.32;;
80421;SDS011;69763;50.182;9.144;2023-06-14T04:03:29;6.95;;;4.53;;
80421;SDS011;69763;50.182;9.144;2023-06-14T04:05:55;7.47;;;4.63;;
80421;SDS011;69763;50.182;9.144;2023-06-14T04:08:20;7.07;;;4.90;;
80421;SDS011;69763;50.182;9.144;2023-06-14T04:10:46;6.90;;;5.15;;
80421;SDS011;69763;50.182;9.144;2023-06-14T04:13:12;7.97;;;4.40;;
80421;SDS011;69763;50.182;9.144;2023-06-14T04:15:38;6.90;;;4.22;;
80421;SDS011;69763;50.182;9.144;2023-06-14T04:18:03;9.32;;;4.85;;
80421;SDS011;69763;50.182;9.144;2023-06-14T04:20:29;8.35;;;4.60;;
80421;SDS011;69763;50.182;9.144;2023-06-14T04:22:56;7.22;;;4.80;;
80421;SDS011;69763;50.182;9.144;2023-06-14T04:25:21;5.70;;;4.18;;
80421;SDS011;69763;50.182;9.144;2023-06-14T04:27:47;6.55;;;4.43;;
80421;SDS011;69763;50.182;9.144;2023-06-14T04:30:14;8.23;;;4.38;;
80421;SDS011;69763;50.182;9.144;2023-06-14T04:32:39;7.00;;;4.43;;
80421;SDS011;69763;50.182;9.144;2023-06-14T04:35:05;7.15;;;4.57;;
80421;SDS011;69763;50.182;9.144;2023-06-14T04:37:31;7.00;;;4.68;;
80421;SDS011;69763;50.182;9.144;2023-06-14T04:39:56;9.35;;;4.95;;
80421;SDS011;69763;50.182;9.144;2023-06-14T04:42:22;7.32;;;4.25;;
80421;SDS011;69763;50.182;9.144;2023-06-14T04:44:48;10.85;;;5.07;;
80421;SDS011;69763;50.182;9.144;2023-06-14T04:47:17;9.05;;;4.18;;
80421;SDS011;69763;50.182;9.144;2023-06-14T04:49:43;10.73;;;5.00;;
80421;SDS011;69763;50.182;9.144;2023-06-14T04:52:08;6.38;;;4.50;;
80421;SDS011;69763;50.182;9.144;2023-06-14T04:54:33;8.93;;;4.30;;
80421;SDS011;69763;50.182;9.144;2023-06-14T04:56:59;10.50;;;4.45;;
80421;SDS011;69763;50.182;9.144;2023-06-14T04:59:24;8.10;;;4.30;;
80421;SDS011;69763;50.182;9.144;2023-06-14T05:01:50;7.43;;;4.80;;
80421;SDS011;69763;50.182;9.144;2023-06-14T05:04:17;8.48;;;5.28;;
80421;SDS011;69763;50.182;9.144;2023-06-14T05:06:43;8.20;;;4.80;;
80421;SDS011;69763;50.182;9.144;2023-06-14T05:09:09;9.90;;;4.85;;
80421;SDS011;69763;50.182;9.144;2023-06-14T05:11:34;6.82;;;4.55;;
80421;SDS011;69763;50.182;9.144;2023-06-14T05:14:00;9.82;;;4.63;;
80421;SDS011;69763;50.182;9.144;2023-06-14T05:16:25;10.25;;;4.53;;
80421;SDS011;69763;50.182;9.144;2023-06-14T05:18:50;12.35;;;4.82;;
80421;SDS011;69763;50.182;9.144;2023-06-14T05:21:17;6.57;;;3.78;;
80421;SDS011;69763;50.182;9.144;2023-06-14T05:23:43;10.35;;;4.45;;
80421;SDS011;69763;50.182;9.144;2023-06-14T05:26:08;9.40;;;4.53;;
80421;SDS011;69763;50.182;9.144;2023-06-14T05:28:33;8.73;;;4.50;;
80421;SDS011;69763;50.182;9.144;2023-06-14T05:30:59;7.93;;;4.30;;
80421;SDS011;69763;50.182;9.144;2023-06-14T05:33:24;7.28;;;4.65;;
80421;SDS011;69763;50.182;9.144;2023-06-14T05:35:49;23.85;;;6.00;;
80421;SDS011;69763;50.182;9.144;2023-06-14T05:38:16;9.93;;;4.63;;
80421;SDS011;69763;50.182;9.144;2023-06-14T05:40:41;9.15;;;4.30;;
80421;SDS011;69763;50.182;9.144;2023-06-14T05:43:07;9.02;;;4.57;;
80421;SDS011;69763;50.182;9.144;2023-06-14T05:45:32;11.98;;;4.72;;
80421;SDS011;69763;50.182;9.144;2023-06-14T05:47:58;8.25;;;5.30;;
80421;SDS011;69763;50.182;9.144;2023-06-14T05:50:23;6.47;;;4.78;;
80421;SDS011;69763;50.182;9.144;2023-06-14T05:52:48;7.05;;;4.70;;
80421;SDS011;69763;50.182;9.144;2023-06-14T05:55:15;7.22;;;4.57;;
80421;SDS011;69763;50.182;9.144;2023-06-14T05:57:41;6.15;;;4.32;;
80421;SDS011;69763;50.182;9.144;2023-06-14T06:00:08;5.72;;;4.20;;
80421;SDS011;69763;50.182;9.144;2023-06-14T06:02:34;6.80;;;4.63;;
80421;SDS011;69763;50.182;9.144;2023-06-14T06:05:00;9.10;;;4.47;;
80421;SDS011;69763;50.182;9.144;2023-06-14T06:07:25;7.63;;;4.30;;
80421;SDS011;69763;50.182;9.144;2023-06-14T06:09:50;6.45;;;4.53;;
80421;SDS011;69763;50.182;9.144;2023-06-14T06:12:17;7.15;;;4.10;;
80421;SDS011;69763;50.182;9.144;2023-06-14T06:14:42;5.95;;;4.07;;
80421;SDS011;69763;50.182;9.144;2023-06-14T06:17:08;8.02;;;4.20;;
80421;SDS011;69763;50.182;9.144;2023-06-14T06:19:33;5.75;;;3.67;;
80421;SDS011;69763;50.182;9.144;2023-06-14T06:21:58;6.25;;;4.10;;
80421;SDS011;69763;50.182;9.144;2023-06-14T06:24:24;6.05;;;4.18;;
80421;SDS011;69763;50.182;9.144;2023-06-14T06:26:49;7.00;;;4.53;;
80421;SDS011;69763;50.182;9.144;2023-06-14T06:29:16;4.70;;;3.47;;
80421;SDS011;69763;50.182;9.144;2023-06-14T06:31:41;8.30;;;3.92;;
80421;SDS011;69763;50.182;9.144;2023-06-14T06:34:07;10.70;;;3.45;;
80421;SDS011;69763;50.182;9.144;2023-06-14T06:36:32;6.45;;;3.20;;
80421;SDS011;69763;50.182;9.144;2023-06-14T06:38:57;5.05;;;3.50;;
80421;SDS011;69763;50.182;9.144;2023-06-14T06:41:23;6.70;;;3.40;;
80421;SDS011;69763;50.182;9.144;2023-06-14T06:43:48;6.88;;;3.28;;
80421;SDS011;69763;50.182;9.144;2023-06-14T06:46:15;5.97;;;3.10;;
80421;SDS011;69763;50.182;9.144;2023-06-14T06:48:40;3.75;;;2.97;;
80421;SDS011;69763;50.182;9.144;2023-06-14T06:51:05;5.28;;;3.35;;
80421;SDS011;69763;50.182;9.144;2023-06-14T06:53:31;3.92;;;2.90;;
80421;SDS011;69763;50.182;9.144;2023-06-14T06:55:56;3.88;;;2.95;;
80421;SDS011;69763;50.182;9.144;2023-06-14T06:58:22;8.00;;;3.78;;
80421;SDS011;69763;50.182;9.144;2023-06-14T07:00:47;5.38;;;3.13;;
80421;SDS011;69763;50.182;9.144;2023-06-14T07:03:14;7.30;;;3.35;;
80421;SDS011;69763;50.182;9.144;2023-06-14T07:05:39;6.70;;;2.90;;
80421;SDS011;69763;50.182;9.144;2023-06-14T07:08:04;8.70;;;2.95;;
80421;SDS011;69763;50.182;9.144;2023-06-14T07:10:30;4.65;;;2.85;;
80421;SDS011;69763;50.182;9.144;2023-06-14T07:15:20;4.27;;;2.70;;
80421;SDS011;69763;50.182;9.144;2023-06-14T07:17:46;3.72;;;3.08;;
80421;SDS011;69763;50.182;9.144;2023-06-14T07:22:38;4.20;;;2.72;;
80421;SDS011;69763;50.182;9.144;2023-06-14T07:25:04;4.25;;;2.95;;
80421;SDS011;69763;50.182;9.144;2023-06-14T07:27:30;5.95;;;3.00;;
80421;SDS011;69763;50.182;9.144;2023-06-14T07:32:21;4.93;;;2.73;;
80421;SDS011;69763;50.182;9.144;2023-06-14T07:34:46;6.88;;;3.50;;
80421;SDS011;69763;50.182;9.144;2023-06-14T07:39:38;6.20;;;2.88;;
80421;SDS011;69763;50.182;9.144;2023-06-14T07:44:29;5.18;;;3.10;;
80421;SDS011;69763;50.182;9.144;2023-06-14T07:49:20;6.20;;;3.10;;
80421;SDS011;69763;50.182;9.144;2023-06-14T07:54:11;5.47;;;2.63;;
80421;SDS011;69763;50.182;9.144;2023-06-14T07:56:37;5.00;;;3.03;;
80421;SDS011;69763;50.182;9.144;2023-06-14T08:01:27;3.70;;;2.80;;
80421;SDS011;69763;50.182;9.144;2023-06-14T08:06:18;3.85;;;2.65;;
80421;SDS011;69763;50.182;9.144;2023-06-14T08:08:44;7.65;;;3.30;;
80421;SDS011;69763;50.182;9.144;2023-06-14T08:11:10;6.15;;;3.78;;
80421;SDS011;69763;50.182;9.144;2023-06-14T08:13:36;6.10;;;3.40;;
80421;SDS011;69763;50.182;9.144;2023-06-14T08:18:26;4.87;;;3.30;;
80421;SDS011;69763;50.182;9.144;2023-06-14T08:23:17;7.77;;;3.50;;
80421;SDS011;69763;50.182;9.144;2023-06-14T08:28:09;3.90;;;2.97;;
80421;SDS011;69763;50.182;9.144;2023-06-14T08:30:34;4.70;;;2.88;;
80421;SDS011;69763;50.182;9.144;2023-06-14T08:35:25;5.27;;;2.87;;
80421;SDS011;69763;50.182;9.144;2023-06-14T08:40:19;5.33;;;2.87;;
80421;SDS011;69763;50.182;9.144;2023-06-14T08:42:45;4.82;;;3.22;;
80421;SDS011;69763;50.182;9.144;2023-06-14T08:45:16;5.00;;;2.72;;
80421;SDS011;69763;50.182;9.144;2023-06-14T08:47:42;5.88;;;3.05;;
80421;SDS011;69763;50.182;9.144;2023-06-14T08:52:33;5.47;;;3.03;;
80421;SDS011;69763;50.182;9.144;2023-06-14T08:55:03;5.85;;;3.05;;
80421;SDS011;69763;50.182;9.144;2023-06-14T08:57:29;5.07;;;3.00;;
80421;SDS011;69763;50.182;9.144;2023-06-14T08:59:55;8.32;;;3.00;;
80421;SDS011;69763;50.182;9.144;2023-06-14T09:02:23;6.65;;;3.13;;
80421;SDS011;69763;50.182;9.144;2023-06-14T09:04:48;5.03;;;2.85;;
80421;SDS011;69763;50.182;9.144;2023-06-14T09:07:13;4.05;;;2.40;;
80421;SDS011;69763;50.182;9.144;2023-06-14T09:09:39;4.88;;;3.17;;
80421;SDS011;69763;50.182;9.144;2023-06-14T09:12:06;3.50;;;2.42;;
80421;SDS011;69763;50.182;9.144;2023-06-14T09:14:33;3.38;;;2.60;;
80421;SDS011;69763;50.182;9.144;2023-06-14T09:16:59;5.50;;;2.13;;
80421;SDS011;69763;50.182;9.144;2023-06-14T09:21:52;8.43;;;2.60;;
80421;SDS011;69763;50.182;9.144;2023-06-14T09:24:17;4.50;;;2.38;;
80421;SDS011;69763;50.182;9.144;2023-06-14T09:29:09;3.17;;;2.27;;
80421;SDS011;69763;50.182;9.144;2023-06-14T09:31:34;4.15;;;2.40;;
80421;SDS011;69763;50.182;9.144;2023-06-14T09:36:30;4.40;;;2.20;;
80421;SDS011;69763;50.182;9.144;2023-06-14T09:38:57;3.08;;;1.90;;
80421;SDS011;69763;50.182;9.144;2023-06-14T09:41:30;5.07;;;1.98;;
80421;SDS011;69763;50.182;9.144;2023-06-14T09:43:56;4.28;;;2.72;;
80421;SDS011;69763;50.182;9.144;2023-06-14T09:46:22;5.20;;;2.85;;
80421;SDS011;69763;50.182;9.144;2023-06-14T09:51:13;6.70;;;2.80;;
80421;SDS011;69763;50.182;9.144;2023-06-14T09:53:41;3.83;;;2.47;;
80421;SDS011;69763;50.182;9.144;2023-06-14T09:56:08;5.72;;;2.92;;
80421;SDS011;69763;50.182;9.144;2023-06-14T09:58:36;7.63;;;2.97;;
80421;SDS011;69763;50.182;9.144;2023-06-14T10:01:04;7.18;;;2.75;;
80421;SDS011;69763;50.182;9.144;2023-06-14T10:03:33;7.85;;;2.70;;
80421;SDS011;69763;50.182;9.144;2023-06-14T10:06:01;4.10;;;2.58;;
80421;SDS011;69763;50.182;9.144;2023-06-14T10:08:30;4.10;;;2.53;;
80421;SDS011;69763;50.182;9.144;2023-06-14T10:10:58;7.25;;;2.60;;
80421;SDS011;69763;50.182;9.144;2023-06-14T10:13:25;3.72;;;2.45;;
80421;SDS011;69763;50.182;9.144;2023-06-14T10:15:53;5.63;;;2.78;;
80421;SDS011;69763;50.182;9.144;2023-06-14T10:18:25;4.65;;;2.72;;
80421;SDS011;69763;50.182;9.144;2023-06-14T10:20:59;5.15;;;3.20;;
80421;SDS011;69763;50.182;9.144;2023-06-14T10:23:29;4.22;;;2.65;;
80421;SDS011;69763;50.182;9.144;2023-06-14T10:25:59;4.65;;;3.00;;
80421;SDS011;69763;50.182;9.144;2023-06-14T10:28:24;4.72;;;2.83;;
80421;SDS011;69763;50.182;9.144;2023-06-14T10:31:05;9.30;;;3.17;;
80421;SDS011;69763;50.182;9.144;2023-06-14T10:33:32;7.15;;;2.53;;
80421;SDS011;69763;50.182;9.144;2023-06-14T10:36:08;4.55;;;3.10;;
80421;SDS011;69763;50.182;9.144;2023-06-14T10:38:34;4.93;;;2.92;;
80421;SDS011;69763;50.182;9.144;2023-06-14T10:41:03;5.80;;;2.97;;
80421;SDS011;69763;50.182;9.144;2023-06-14T10:43:29;4.65;;;2.88;;
80421;SDS011;69763;50.182;9.144;2023-06-14T10:46:16;4.53;;;2.60;;
80421;SDS011;69763;50.182;9.144;2023-06-14T10:48:42;5.20;;;2.85;;
80421;SDS011;69763;50.182;9.144;2023-06-14T10:51:13;3.97;;;2.90;;
80421;SDS011;69763;50.182;9.144;2023-06-14T10:53:40;4.63;;;2.60;;
80421;SDS011;69763;50.182;9.144;2023-06-14T10:56:07;5.25;;;2.60;;
80421;SDS011;69763;50.182;9.144;2023-06-14T10:58:33;4.05;;;2.67;;
80421;SDS011;69763;50.182;9.144;2023-06-14T11:00:58;3.78;;;3.00;;
80421;SDS011;69763;50.182;9.144;2023-06-14T11:03:36;3.42;;;2.70;;
80421;SDS011;69763;50.182;9.144;2023-06-14T11:06:15;8.35;;;3.00;;
80421;SDS011;69763;50.182;9.144;2023-06-14T11:08:48;3.60;;;2.80;;
80421;SDS011;69763;50.182;9.144;2023-06-14T11:11:31;5.10;;;2.78;;
80421;SDS011;69763;50.182;9.144;2023-06-14T11:13:57;4.68;;;2.55;;
80421;SDS011;69763;50.182;9.144;2023-06-14T11:16:25;4.22;;;2.88;;
80421;SDS011;69763;50.182;9.144;2023-06-14T11:18:51;5.28;;;3.17;;
80421;SDS011;69763;50.182;9.144;2023-06-14T11:21:17;4.45;;;2.92;;
80421;SDS011;69763;50.182;9.144;2023-06-14T11:26:13;4.28;;;2.83;;
80421;SDS011;69763;50.182;9.144;2023-06-14T11:28:40;4.93;;;3.05;;
80421;SDS011;69763;50.182;9.144;2023-06-14T11:31:06;3.50;;;2.45;;
80421;SDS011;69763;50.182;9.144;2023-06-14T11:33:32;4.68;;;2.72;;
80421;SDS011;69763;50.182;9.144;2023-06-14T11:35:58;5.15;;;2.85;;
80421;SDS011;69763;50.182;9.144;2023-06-14T11:38:23;5.53;;;2.80;;
80421;SDS011;69763;50.182;9.144;2023-06-14T11:40:50;3.28;;;2.60;;
80421;SDS011;69763;50.182;9.144;2023-06-14T11:43:15;4.35;;;2.70;;
80421;SDS011;69763;50.182;9.144;2023-06-14T11:45:42;4.20;;;2.75;;
80421;SDS011;69763;50.182;9.144;2023-06-14T11:48:07;3.50;;;2.38;;
80421;SDS011;69763;50.182;9.144;2023-06-14T11:50:32;3.80;;;2.70;;
80421;SDS011;69763;50.182;9.144;2023-06-14T11:53:03;3.42;;;2.55;;
80421;SDS011;69763;50.182;9.144;2023-06-14T11:55:28;3.80;;;2.30;;
80421;SDS011;69763;50.182;9.144;2023-06-14T11:57:54;3.72;;;2.40;;
80421;SDS011;69763;50.182;9.144;2023-06-14T12:00:19;4.05;;;2.53;;
80421;SDS011;69763;50.182;9.144;2023-06-14T12:02:53;4.28;;;2.88;;
80421;SDS011;69763;50.182;9.144;2023-06-14T12:05:20;3.42;;;2.25;;
80421;SDS011;69763;50.182;9.144;2023-06-14T12:07:46;3.45;;;2.42;;
80421;SDS011;69763;50.182;9.144;2023-06-14T12:10:12;5.68;;;3.20;;
80421;SDS011;69763;50.182;9.144;2023-06-14T12:12:39;3.92;;;2.50;;
80421;SDS011;69763;50.182;9.144;2023-06-14T12:17:31;5.97;;;2.60;;
80421;SDS011;69763;50.182;9.144;2023-06-14T12:19:59;4.32;;;2.55;;
80421;SDS011;69763;50.182;9.144;2023-06-14T12:22:30;3.65;;;2.72;;
80421;SDS011;69763;50.182;9.144;2023-06-14T12:24:56;3.38;;;2.63;;
80421;SDS011;69763;50.182;9.144;2023-06-14T12:27:21;3.83;;;2.47;;
80421;SDS011;69763;50.182;9.144;2023-06-14T12:32:23;3.47;;;2.67;;
80421;SDS011;69763;50.182;9.144;2023-06-14T12:34:48;3.40;;;2.40;;
80421;SDS011;69763;50.182;9.144;2023-06-14T12:39:41;3.33;;;2.20;;
80421;SDS011;69763;50.182;9.144;2023-06-14T12:42:07;4.93;;;2.55;;
80421;SDS011;69763;50.182;9.144;2023-06-14T12:46:57;5.60;;;2.60;;
80421;SDS011;69763;50.182;9.144;2023-06-14T12:49:23;4.93;;;2.40;;
80421;SDS011;69763;50.182;9.144;2023-06-14T12:51:48;3.97;;;2.10;;
80421;SDS011;69763;50.182;9.144;2023-06-14T12:54:15;5.25;;;2.38;;
80421;SDS011;69763;50.182;9.144;2023-06-14T12:56:40;5.47;;;2.33;;
80421;SDS011;69763;50.182;9.144;2023-06-14T12:59:06;5.38;;;2.78;;
80421;SDS011;69763;50.182;9.144;2023-06-14T13:03:56;4.83;;;2.60;;
80421;SDS011;69763;50.182;9.144;2023-06-14T13:06:21;5.45;;;2.45;;
80421;SDS011;69763;50.182;9.144;2023-06-14T13:08:47;4.95;;;2.65;;
80421;SDS011;69763;50.182;9.144;2023-06-14T13:11:14;4.53;;;2.50;;
80421;SDS011;69763;50.182;9.144;2023-06-14T13:13:39;4.22;;;2.45;;
80421;SDS011;69763;50.182;9.144;2023-06-14T13:16:04;3.83;;;2.50;;
80421;SDS011;69763;50.182;9.144;2023-06-14T13:18:30;3.78;;;2.50;;
80421;SDS011;69763;50.182;9.144;2023-06-14T13:23:20;3.67;;;2.63;;
80421;SDS011;69763;50.182;9.144;2023-06-14T13:25:46;4.70;;;2.35;;
80421;SDS011;69763;50.182;9.144;2023-06-14T13:28:12;4.70;;;2.65;;
80421;SDS011;69763;50.182;9.144;2023-06-14T13:30:38;3.58;;;2.58;;
80421;SDS011;69763;50.182;9.144;2023-06-14T13:33:03;5.45;;;2.40;;
80421;SDS011;69763;50.182;9.144;2023-06-14T13:35:29;5.90;;;2.40;;
80421;SDS011;69763;50.182;9.144;2023-06-14T13:37:54;3.03;;;2.40;;
80421;SDS011;69763;50.182;9.144;2023-06-14T13:40:19;4.20;;;2.40;;
80421;SDS011;69763;50.182;9.144;2023-06-14T13:45:12;3.28;;;2.40;;
80421;SDS011;69763;50.182;9.144;2023-06-14T13:47:38;2.83;;;2.20;;
80421;SDS011;69763;50.182;9.144;2023-06-14T13:50:04;3.45;;;2.40;;
80421;SDS011;69763;50.182;9.144;2023-06-14T13:52:30;6.88;;;2.83;;
80421;SDS011;69763;50.182;9.144;2023-06-14T13:54:55;3.88;;;2.30;;
80421;SDS011;69763;50.182;9.144;2023-06-14T13:59:46;5.63;;;2.77;;
80421;SDS011;69763;50.182;9.144;2023-06-14T14:02:12;4.55;;;2.50;;
80421;SDS011;69763;50.182;9.144;2023-06-14T14:04:38;4.30;;;2.30;;
80421;SDS011;69763;50.182;9.144;2023-06-14T14:09:30;3.20;;;2.40;;
80421;SDS011;69763;50.182;9.144;2023-06-14T14:14:20;5.20;;;2.23;;
80421;SDS011;69763;50.182;9.144;2023-06-14T14:19:12;3.53;;;2.40;;
80421;SDS011;69763;50.182;9.144;2023-06-14T14:21:37;5.45;;;2.90;;
80421;SDS011;69763;50.182;9.144;2023-06-14T14:24:03;3.53;;;2.55;;
80421;SDS011;69763;50.182;9.144;2023-06-14T14:28:54;3.77;;;2.60;;
80421;SDS011;69763;50.182;9.144;2023-06-14T14:31:19;4.15;;;2.38;;
80421;SDS011;69763;50.182;9.144;2023-06-14T14:33:45;6.53;;;2.78;;
80421;SDS011;69763;50.182;9.144;2023-06-14T14:36:11;7.15;;;2.70;;
80421;SDS011;69763;50.182;9.144;2023-06-14T14:38:37;3.17;;;2.17;;
80421;SDS011;69763;50.182;9.144;2023-06-14T14:41:02;5.68;;;2.65;;
80421;SDS011;69763;50.182;9.144;2023-06-14T14:43:29;4.45;;;2.53;;
80421;SDS011;69763;50.182;9.144;2023-06-14T14:45:54;3.00;;;2.53;;
80421;SDS011;69763;50.182;9.144;2023-06-14T14:48:19;4.03;;;2.70;;
80421;SDS011;69763;50.182;9.144;2023-06-14T14:50:45;3.28;;;2.53;;
80421;SDS011;69763;50.182;9.144;2023-06-14T14:55:37;5.28;;;2.50;;
80421;SDS011;69763;50.182;9.144;2023-06-14T14:58:02;6.60;;;2.72;;
80421;SDS011;69763;50.182;9.144;2023-06-14T15:02:53;5.75;;;2.70;;
80421;SDS011;69763;50.182;9.144;2023-06-14T15:07:44;3.70;;;2.70;;
80421;SDS011;69763;50.182;9.144;2023-06-14T15:10:11;3.72;;;2.80;;
80421;SDS011;69763;50.182;9.144;2023-06-14T15:12:36;4.00;;;2.95;;
80421;SDS011;69763;50.182;9.144;2023-06-14T15:15:02;4.43;;;3.03;;
80421;SDS011;69763;50.182;9.144;2023-06-14T15:17:28;6.03;;;2.70;;
80421;SDS011;69763;50.182;9.144;2023-06-14T15:19:53;3.80;;;2.63;;
80421;SDS011;69763;50.182;9.144;2023-06-14T15:22:18;6.15;;;2.80;;
80421;SDS011;69763;50.182;9.144;2023-06-14T15:24:44;4.05;;;2.75;;
80421;SDS011;69763;50.182;9.144;2023-06-14T15:29:37;3.53;;;2.53;;
80421;SDS011;69763;50.182;9.144;2023-06-14T15:34:27;3.95;;;2.70;;
80421;SDS011;69763;50.182;9.144;2023-06-14T15:39:18;4.07;;;2.80;;
80421;SDS011;69763;50.182;9.144;2023-06-14T15:41:43;8.57;;;2.85;;
80421;SDS011;69763;50.182;9.144;2023-06-14T15:46:35;4.65;;;2.65;;
80421;SDS011;69763;50.182;9.144;2023-06-14T15:51:26;6.07;;;3.40;;
80421;SDS011;69763;50.182;9.144;2023-06-14T15:56:16;6.50;;;2.70;;
80421;SDS011;69763;50.182;9.144;2023-06-14T16:01:08;4.80;;;2.57;;
80421;SDS011;69763;50.182;9.144;2023-06-14T16:03:33;5.03;;;2.72;;
80421;SDS011;69763;50.182;9.144;2023-06-14T16:05:59;4.47;;;2.90;;
80421;SDS011;69763;50.182;9.144;2023-06-14T16:08:24;7.20;;;2.92;;
80421;SDS011;69763;50.182;9.144;2023-06-14T16:10:50;4.45;;;2.83;;
80421;SDS011;69763;50.182;9.144;2023-06-14T16:15:40;4.10;;;2.83;;
80421;SDS011;69763;50.182;9.144;2023-06-14T16:18:07;4.78;;;3.08;;
80421;SDS011;69763;50.182;9.144;2023-06-14T16:20:32;3.97;;;2.53;;
80421;SDS011;69763;50.182;9.144;2023-06-14T16:22:58;3.85;;;2.50;;
80421;SDS011;69763;50.182;9.144;2023-06-14T16:25:23;4.85;;;2.80;;
80421;SDS011;69763;50.182;9.144;2023-06-14T16:27:48;4.22;;;3.00;;
80421;SDS011;69763;50.182;9.144;2023-06-14T16:32:40;4.57;;;2.50;;